Manhattan, Nevada
Current Conditions -  °F | °C
As of 12:56 PM on Saturday 25 Oct 2014 (Local Time) from KTPH Reporting Station
Clear Clear  
Wind Chill: 70°   Ceiling: Unl
Heat Index: 70°   Visibility: 10mi
Dew Point: 26°   Wind: 29mph
Humidity: 19%   Direction: 190°S
Pressure: 30.06"   Gusts: 36mph
Location:  38.54°N, 117.07°W
Report Text: KTPH 251956Z AUTO 19025G31KT 10SM CLR 21/M03 A3006 RMK AO2 PK WND 19034/1934 SLP118 T02111033
Loading
Personal Weather Stations






























Interactive Weather Map
Tropical Storm Tracking
New forecast layout! Learn more

10-Day Weather Forecast

Advertisements
Track Severe Weather on mobile